KGLH

Greenville Mid-Delta Airport

Greenville, Mississippi, USA
METAR KGLH 201953Z 21011KT 10SM SCT028 SCT034 31/24 A2989 RMK AO2 SLP128 T03110239
Observed Flight Rules
Aug-20 @ 19:53 UTC (38 minutes ago) Visual Flight Rules
Wind Visibility Clouds
210° at 11 knots 10 miles
  • Scattered at 2,800' AGL
  • Scattered at 3,400' AGL
Temperatures Readings
Current 31°C / 88°F
Dewpoint 24°C / 75°F
Humidity 66%
Altimeter 29.89" Hg
Pressure 1012.8 hPa
Elevation 45
METAR KGLH 201953Z 21011KT 10SM SCT028 SCT034 31/24 A2989 RMK AO2 SLP128 T03110239
Observed Flight Rules
Aug-20 @ 19:53 UTC
(38 minutes ago)
VFR
Wind Visibility
210° at 11 knots 10 miles
Clouds
  • Scattered at 2,800' AGL
  • Scattered at 3,400' AGL
Temperature Dewpoint
31°C / 88°F 24°C / 75°F
Humidity Altimeter Pressure
66% 29.89" Hg 1012.8 hPa